Latest Weather Observations for Warragul (Nilma North)

IDV60801

Issued at 6:31 pm EST Monday 30 May 2016 (issued every 30 minutes, with the page automatically refreshed every 10 minutes)

About weather observations | Map of weather stations | Latest weather observations for VIC | Other Formats
Station Details ID: 085313 Name: NILMA NORTH (WARRAGUL) Lat: -38.13 Lon: 145.99 Height: 134.11 m
Data from the previous 72 hours. | See also: Recent months for locations in Victoria
Date/Time
EST
Temp
°C
App
Temp
°C
Dew
Point
Rel
Hum
%
Delta-T
°C
Wind Press
QNH
hPa
Press
MSL
hPa
Rain
since 9 am
mm
Dir
 
Spd
km/h
Gust
km/h
Spd
kts
Gust
kts
30/06:30pm 8.1 5.6 4.5 78 1.6 E 7 9 4 5 1027.2 1027.3 0.0
30/06:00pm 8.5 6.1 4.5 76 1.8 E 6 9 3 5 1026.9 1027.0 0.0
30/05:30pm 9.3 6.9 4.5 72 2.1 E 6 7 3 4 1026.7 1026.8 0.0
30/05:00pm 10.5 8.1 5.1 69 2.5 ESE 7 13 4 7 1026.3 1026.4 0.0
30/04:30pm 11.8 9.4 5.2 64 3.1 E 7 13 4 7 1026.1 1026.2 0.0
30/04:00pm 12.4 10.2 6.0 65 3.0 E 7 13 4 7 1026.0 1026.1 0.0
30/03:30pm 12.9 10.7 6.0 63 3.3 E 7 15 4 8 1025.8 1025.9 0.0
30/03:00pm 13.1 10.6 6.5 64 3.2 ESE 9 17 5 9 1025.8 1025.9 0.0
30/02:30pm 12.8 10.1 5.7 62 3.4 E 9 13 5 7 1025.7 1025.8 0.0
30/02:00pm 12.7 10.1 6.1 64 3.1 E 9 13 5 7 1025.8 1025.9 0.0
30/01:30pm 12.5 10.2 5.7 63 3.2 ESE 7 11 4 6 1026.0 1026.1 0.0
30/01:00pm 12.5 10.4 5.9 64 3.1 E 6 11 3 6 1026.2 1026.3 0.0
30/12:30pm 12.4 10.8 4.6 59 3.6 SSE 2 6 1 3 1026.4 1026.5 0.0
30/12:00pm 12.5 10.7 5.2 61 3.4 ENE 4 6 2 3 1026.7 1026.8 0.0
30/11:30am 11.4 9.8 6.5 72 2.3 ESE 4 6 2 3 1026.9 1027.0 0.0
30/11:00am 10.9 9.4 6.8 76 1.9 ESE 4 7 2 4 1027.2 1027.3 0.0
30/10:30am 10.1 8.4 6.1 76 1.9 ESE 4 6 2 3 1027.4 1027.5 0.0
30/10:00am 9.5 8.6 6.0 79 1.6 CALM 0 0 0 0 1027.3 1027.4 0.0
30/09:30am 7.1 6.3 6.4 95 0.3 CALM 0 0 0 0 1027.0 1027.1 0.0
30/09:00am 4.5 3.2 4.1 97 0.2 CALM 0 0 0 0 1026.8 1026.9 0.0
30/08:30am 4.5 3.2 4.2 98 0.1 CALM 0 0 0 0 1026.7 1026.8 0.0
30/08:00am 2.4 0.7 2.0 97 0.2 CALM 0 2 0 1 1026.4 1026.5 0.0
30/07:30am 2.8 1.2 2.2 96 0.2 CALM 0 0 0 0 1026.1 1026.2 0.0
30/07:00am 3.5 1.6 2.9 96 0.2 E 2 2 1 1 1025.9 1026.0 0.0
30/06:30am 3.8 1.6 3.1 95 0.3 SE 4 6 2 3 1025.5 1025.6 0.0
30/06:00am 5.1 3.9 4.5 96 0.3 CALM 0 2 0 1 1024.9 1025.0 0.0
30/05:30am 4.8 3.0 3.6 92 0.5 E 2 7 1 4 1024.7 1024.8 0.0
30/05:00am 5.9 3.5 4.4 90 0.6 NNW 6 7 3 4 1024.5 1024.6 0.0
30/04:30am 6.3 5.2 5.3 93 0.4 CALM 0 0 0 0 1024.4 1024.5 0.0
30/04:00am 6.5 5.1 5.6 94 0.4 NNW 2 6 1 3 1024.1 1024.2 0.0
30/03:30am 6.3 5.2 5.3 93 0.4 CALM 0 2 0 1 1024.0 1024.1 0.0
30/03:00am 6.3 5.2 5.3 93 0.4 CALM 0 0 0 0 1023.9 1024.0 0.0
30/02:30am 6.8 5.4 5.7 93 0.5 SE 2 9 1 5 1023.8 1023.9 0.0
30/02:00am 7.3 6.4 6.2 93 0.5 CALM 0 0 0 0 1023.7 1023.8 0.0
30/01:30am 6.8 5.4 5.7 93 0.5 NNE 2 6 1 3 1023.4 1023.5 0.0
30/01:00am 7.2 6.3 6.0 92 0.5 CALM 0 6 0 3 1023.3 1023.4 0.0
30/12:30am 7.5 6.3 6.3 92 0.6 SSW 2 4 1 2 1023.5 1023.6 0.0
30/12:00am 7.6 6.7 5.9 89 0.8 CALM 0 0 0 0 1023.3 1023.4 0.0
 
Date/Time
EST
Temp
°C
App
Temp
°C
Dew
Point
Rel
Hum
%
Delta-T
°C
Wind Press
QNH
hPa
Press
MSL
hPa
Rain
since 9 am
mm
Dir
 
Spd
km/h
Gust
km/h
Spd
kts
Gust
kts
29/11:30pm 7.9 7.0 6.0 88 0.9 CALM 0 0 0 0 1023.2 1023.3 0.0
29/11:00pm 8.0 7.1 6.0 87 0.9 CALM 0 0 0 0 1023.2 1023.3 0.0
29/10:30pm 8.2 7.3 6.2 87 0.9 CALM 0 0 0 0 1023.1 1023.2 0.0
29/10:00pm 8.1 7.2 6.1 87 0.9 CALM 0 0 0 0 1023.0 1023.1 0.0
29/09:30pm 8.2 7.0 6.3 88 0.9 NNW 2 4 1 2 1022.9 1022.9 0.0
29/09:00pm 8.2 7.0 6.3 88 0.9 NNW 2 6 1 3 1022.8 1022.8 0.0
29/08:30pm 8.1 6.5 6.2 88 0.9 NW 4 6 2 3 1022.6 1022.6 0.0
29/08:00pm 8.3 6.7 6.3 87 0.9 WNW 4 6 2 3 1022.4 1022.4 0.0
29/07:30pm 8.4 6.8 6.4 87 0.9 NW 4 6 2 3 1022.0 1022.0 0.0
29/07:00pm 8.4 6.8 6.4 87 0.9 NW 4 6 2 3 1021.6 1021.6 0.0
29/06:30pm 8.6 7.0 6.4 86 1.0 WNW 4 6 2 3 1021.4 1021.4 0.0
29/06:00pm 8.7 7.0 6.0 83 1.2 WNW 4 6 2 3 1021.0 1021.1 0.0
29/05:30pm 8.5 6.4 5.6 82 1.3 WNW 6 7 3 4 1020.8 1020.9 0.0
29/05:00pm 9.8 6.9 6.7 81 1.5 W 11 13 6 7 1020.4 1020.5 0.0
29/04:30pm 9.7 6.9 6.8 82 1.4 WNW 11 17 6 9 1020.3 1020.4 0.0
29/04:00pm 10.8 7.2 6.9 77 1.9 WNW 15 22 8 12 1020.2 1020.3 0.0
29/03:30pm 11.3 7.1 7.6 78 1.8 WNW 19 28 10 15 1019.9 1020.0 0.0
29/03:00pm 11.6 7.5 7.9 78 1.8 WNW 19 28 10 15 1019.6 1019.7 0.0
29/02:30pm 12.3 8.0 8.0 75 2.1 WNW 20 30 11 16 1019.4 1019.5 0.0
29/02:00pm 12.5 8.1 7.6 72 2.4 W 20 28 11 15 1019.2 1019.3 0.0
29/01:30pm 12.2 7.8 7.3 72 2.4 W 20 28 11 15 1019.2 1019.3 0.0
29/01:00pm 12.6 8.3 7.9 73 2.3 WNW 20 32 11 17 1019.1 1019.2 0.0
29/12:30pm 11.8 7.0 7.3 74 2.2 WNW 22 32 12 17 1019.1 1019.2 0.0
29/12:00pm 12.0 7.6 7.5 74 2.2 WNW 20 30 11 16 1019.2 1019.3 0.0
29/11:30am 11.7 7.0 7.6 76 2.0 WNW 22 33 12 18 1019.3 1019.4 0.0
29/11:00am 11.9 6.7 7.4 74 2.2 WNW 24 32 13 17 1019.2 1019.3 0.0
29/10:30am 11.5 7.7 7.4 76 2.0 WNW 17 24 9 13 1019.2 1019.3 0.0
29/10:00am 10.9 7.0 7.2 78 1.8 WNW 17 28 9 15 1019.0 1019.1 0.0
29/09:30am 10.1 6.6 7.0 81 1.5 WNW 15 20 8 11 1018.7 1018.8 0.0
29/09:00am 9.6 6.4 6.9 83 1.3 WNW 13 19 7 10 1018.3 1018.4 2.2
29/08:30am 8.3 5.4 6.6 89 0.8 WNW 11 17 6 9 1018.1 1018.2 2.2
29/08:00am 8.0 4.7 6.3 89 0.8 NW 13 20 7 11 1017.9 1018.0 2.2
29/07:30am 7.7 4.4 6.3 91 0.6 WNW 13 20 7 11 1017.5 1017.6 2.2
29/07:00am 7.8 4.1 6.1 89 0.8 WNW 15 20 8 11 1017.3 1017.4 2.2
29/06:30am 7.6 4.3 6.2 91 0.6 WNW 13 22 7 12 1017.1 1017.2 2.2
29/06:00am 7.6 4.7 6.4 92 0.6 WNW 11 19 6 10 1016.9 1017.0 2.2
29/05:30am 7.9 4.7 6.7 92 0.6 WNW 13 19 7 10 1016.7 1016.8 2.2
29/05:00am 8.1 4.9 6.9 92 0.6 WNW 13 22 7 12 1016.5 1016.5 2.0
29/04:30am 8.3 4.8 7.1 92 0.6 WNW 15 24 8 13 1016.3 1016.3 2.0
29/04:00am 8.4 5.3 7.3 93 0.5 WNW 13 24 7 13 1016.1 1016.1 2.0
29/03:30am 8.2 4.7 7.1 93 0.5 WNW 15 26 8 14 1015.9 1015.9 2.0
29/03:00am 8.4 4.9 7.3 93 0.5 WNW 15 22 8 12 1015.8 1015.8 2.0
29/02:30am 8.4 4.9 7.3 93 0.5 WNW 15 22 8 12 1015.7 1015.7 2.0
29/02:00am 8.6 5.2 7.5 93 0.5 WNW 15 22 8 12 1015.5 1015.5 2.0
29/01:30am 8.6 5.2 7.5 93 0.5 WNW 15 22 8 12 1015.4 1015.4 2.0
29/01:00am 8.7 5.3 7.6 93 0.5 WNW 15 26 8 14 1015.2 1015.2 2.0
29/12:30am 8.8 4.6 7.6 92 0.6 WNW 19 26 10 14 1015.3 1015.3 1.6
29/12:00am 8.9 5.0 7.2 89 0.8 WNW 17 26 9 14 1015.3 1015.3 1.6
 
Date/Time
EST
Temp
°C
App
Temp
°C
Dew
Point
Rel
Hum
%
Delta-T
°C
Wind Press
QNH
hPa
Press
MSL
hPa
Rain
since 9 am
mm
Dir
 
Spd
km/h
Gust
km/h
Spd
kts
Gust
kts
28/11:30pm 8.7 6.4 7.5 92 0.6 WNW 9 15 5 8 1015.3 1015.3 1.6
28/11:00pm 8.7 6.0 7.2 90 0.7 WNW 11 17 6 9 1015.3 1015.3 1.6
28/10:30pm 8.6 5.5 7.1 90 0.7 WNW 13 17 7 9 1015.3 1015.3 1.6
28/10:00pm 8.4 5.6 7.0 91 0.7 WNW 11 15 6 8 1015.3 1015.3 1.6
28/09:30pm 8.4 5.3 7.2 92 0.6 WNW 13 19 7 10 1015.2 1015.2 1.6
28/09:00pm 8.1 5.3 7.0 93 0.5 WNW 11 17 6 9 1014.9 1014.9 1.6
28/08:30pm 8.4 5.4 7.5 94 0.4 WNW 13 24 7 13 1014.6 1014.6 1.6
28/08:00pm 8.8 5.5 7.9 94 0.4 WNW 15 20 8 11 1014.4 1014.4 1.6
28/07:30pm 8.9 6.0 8.0 94 0.4 WNW 13 19 7 10 1014.1 1014.1 1.6
28/07:00pm 9.0 5.7 8.1 94 0.4 WNW 15 22 8 12 1013.9 1013.9 1.6
28/06:30pm 9.1 5.4 8.0 93 0.5 W 17 22 9 12 1013.6 1013.6 1.6
28/06:00pm 9.4 5.8 8.2 92 0.6 W 17 22 9 12 1013.2 1013.3 1.4
28/05:30pm 9.8 7.6 7.9 88 0.9 W 9 15 5 8 1012.7 1012.8 1.4
28/05:00pm 9.8 7.7 8.2 90 0.8 W 9 13 5 7 1012.4 1012.5 1.4
28/04:30pm 9.8 8.1 8.4 91 0.7 W 7 13 4 7 1012.2 1012.3 1.4
28/04:00pm 10.2 9.2 8.8 91 0.7 WSW 4 9 2 5 1012.0 1012.1 1.0
28/03:30pm 10.3 8.7 8.9 91 0.7 W 7 11 4 6 1011.6 1011.7 0.8
28/03:00pm 10.6 8.2 8.7 88 0.9 W 11 17 6 9 1011.2 1011.3 0.6
28/02:30pm 11.6 8.6 9.3 86 1.2 WNW 15 22 8 12 1010.8 1010.9 0.4
28/02:00pm 11.9 9.1 6.8 71 2.5 WSW 11 24 6 13 1010.6 1010.7 0.2
28/01:30pm 12.7 10.6 6.5 66 3.0 SW 7 15 4 8 1010.3 1010.3 0.2
28/01:00pm 12.0 9.9 8.3 78 1.8 W 9 17 5 9 1010.3 1010.3 0.2
28/12:30pm 11.5 9.4 8.2 80 1.6 WSW 9 13 5 7 1010.4 1010.5 0.2
28/12:00pm 11.3 8.8 8.0 80 1.6 W 11 20 6 11 1010.4 1010.5 0.2
28/11:30am 10.7 8.8 9.0 89 0.8 WNW 9 17 5 9 1010.4 1010.5 0.2
28/11:00am 9.2 7.1 8.1 93 0.5 W 9 15 5 8 1010.6 1010.7 0.2
28/10:30am 9.1 6.7 8.5 96 0.3 WNW 11 15 6 8 1010.6 1010.7 0.0
28/10:00am 7.3 6.2 6.9 97 0.2 WSW 2 4 1 2 1010.6 1010.7 0.0
28/09:30am 6.3 5.0 6.2 99 0.0 SW 2 6 1 3 1010.3 1010.3 0.0
28/09:00am 4.7 3.5 4.6 99 0.0 CALM 0 6 0 3 1009.9 1009.9 0.2
28/08:30am 3.6 2.2 3.5 99 0.0 CALM 0 0 0 0 1009.8 1009.8 0.2
28/08:00am 3.0 1.5 2.9 99 0.0 CALM 0 2 0 1 1009.6 1009.6 0.2
28/07:30am 2.5 0.9 2.4 99 0.0 CALM 0 0 0 0 1009.3 1009.3 0.2
28/07:00am 2.2 0.5 2.1 99 0.0 CALM 0 2 0 1 1009.0 1009.0 0.2
28/06:30am 2.1 -0.3 2.0 99 0.0 N 4 6 2 3 1008.9 1008.9 0.2
28/06:00am 1.6 -0.9 1.5 99 0.0 WSW 4 6 2 3 1008.8 1008.8 0.2
28/05:30am 1.2 -1.0 1.1 99 0.0 WNW 2 4 1 2 1008.3 1008.3 0.2
28/05:00am 0.5 -1.5 0.2 98 0.1 CALM 0 0 0 0 1008.2 1008.2 0.2
28/04:30am -0.1 -2.1 -0.4 98 0.1 CALM 0 0 0 0 1008.1 1008.1 0.2
28/04:00am 0.2 -1.8 -0.1 98 0.1 CALM 0 0 0 0 1008.0 1008.0 0.2
28/03:30am 1.3 -0.5 1.0 98 0.1 CALM 0 0 0 0 1008.0 1008.0 0.2
28/03:00am 0.9 -1.0 0.6 98 0.1 CALM 0 0 0 0 1008.2 1008.2 0.2
28/02:30am 1.1 -0.8 0.8 98 0.1 CALM 0 0 0 0 1008.4 1008.4 0.2
28/02:00am 2.0 0.3 1.7 98 0.1 CALM 0 0 0 0 1008.2 1008.2 0.0
28/01:30am 1.5 -0.3 1.2 98 0.1 CALM 0 0 0 0 1008.1 1008.1 0.0
28/01:00am 1.6 -0.2 1.2 97 0.2 CALM 0 0 0 0 1008.1 1008.1 0.0
28/12:30am 3.5 1.7 3.2 98 0.1 WNW 2 4 1 2 1008.0 1008.0 0.0
28/12:00am 3.7 2.3 3.4 98 0.1 CALM 0 0 0 0 1008.2 1008.2 0.0
 
Date/Time
EST
Temp
°C
App
Temp
°C
Dew
Point
Rel
Hum
%
Delta-T
°C
Wind Press
QNH
hPa
Press
MSL
hPa
Rain
since 9 am
mm
Dir
 
Spd
km/h
Gust
km/h
Spd
kts
Gust
kts
27/11:30pm 4.0 2.6 3.6 97 0.2 CALM 0 0 0 0 1008.2 1008.2 0.0
27/11:00pm 4.1 2.7 3.5 96 0.2 CALM 0 0 0 0 1008.1 1008.1 0.0
27/10:30pm 4.3 2.9 3.7 96 0.3 CALM 0 0 0 0 1008.2 1008.2 0.0
27/10:00pm 5.3 3.7 4.7 96 0.3 ESE 2 4 1 2 1008.3 1008.3 0.0
27/09:30pm 5.3 4.1 4.6 95 0.3 CALM 0 0 0 0 1008.2 1008.2 0.0
27/09:00pm 6.1 4.9 4.7 91 0.6 CALM 0 4 0 2 1008.0 1008.0 0.0
27/08:30pm 7.0 5.3 5.8 92 0.5 NW 4 4 2 2 1008.0 1008.0 0.0
27/08:00pm 7.5 6.2 6.0 90 0.7 NNW 2 4 1 2 1007.7 1007.7 0.0
27/07:30pm 7.4 6.4 5.7 89 0.8 CALM 0 0 0 0 1007.7 1007.7 0.0
27/07:00pm 7.9 7.1 6.5 91 0.6 CALM 0 0 0 0 1007.6 1007.6 0.0

Other Formats:

Comma delimited format used in spreadsheet applications
http://www.bom.gov.au/fwo/IDV60801/IDV60801.99806.axf

JavaScript Object Notation format (JSON) in row-major order
http://www.bom.gov.au/fwo/IDV60801/IDV60801.99806.json